sensor_id;sensor_type;location;lat;lon;timestamp;pressure;altitude;pressure_sealevel;temperature
4421;BMP180;11824;51.178;13.546;2023-04-04T00:00:43;101447.00;;;2.80
4421;BMP180;11824;51.178;13.546;2023-04-04T00:03:10;101448.00;;;2.70
4421;BMP180;11824;51.178;13.546;2023-04-04T00:05:38;101456.00;;;2.70
4421;BMP180;11824;51.178;13.546;2023-04-04T00:08:06;101447.00;;;2.70
4421;BMP180;11824;51.178;13.546;2023-04-04T00:10:33;101455.00;;;2.70
4421;BMP180;11824;51.178;13.546;2023-04-04T00:13:01;101446.00;;;2.70
4421;BMP180;11824;51.178;13.546;2023-04-04T00:15:29;101445.00;;;2.70
4421;BMP180;11824;51.178;13.546;2023-04-04T00:17:56;101441.00;;;2.60
4421;BMP180;11824;51.178;13.546;2023-04-04T00:20:24;101445.00;;;2.60
4421;BMP180;11824;51.178;13.546;2023-04-04T00:22:52;101446.00;;;2.60
4421;BMP180;11824;51.178;13.546;2023-04-04T00:25:20;101441.00;;;2.60
4421;BMP180;11824;51.178;13.546;2023-04-04T00:27:47;101454.00;;;2.60
4421;BMP180;11824;51.178;13.546;2023-04-04T00:30:14;101428.00;;;2.60
4421;BMP180;11824;51.178;13.546;2023-04-04T00:32:42;101431.00;;;2.50
4421;BMP180;11824;51.178;13.546;2023-04-04T00:35:09;101442.00;;;2.50
4421;BMP180;11824;51.178;13.546;2023-04-04T00:37:37;101433.00;;;2.50
4421;BMP180;11824;51.178;13.546;2023-04-04T00:40:05;101435.00;;;2.50
4421;BMP180;11824;51.178;13.546;2023-04-04T00:42:34;101426.00;;;2.50
4421;BMP180;11824;51.178;13.546;2023-04-04T00:45:03;101418.00;;;2.50
4421;BMP180;11824;51.178;13.546;2023-04-04T00:47:31;101422.00;;;2.50
4421;BMP180;11824;51.178;13.546;2023-04-04T00:49:59;101425.00;;;2.50
4421;BMP180;11824;51.178;13.546;2023-04-04T00:52:27;101430.00;;;2.50
4421;BMP180;11824;51.178;13.546;2023-04-04T00:54:55;101426.00;;;2.50
4421;BMP180;11824;51.178;13.546;2023-04-04T00:57:22;101416.00;;;2.50
4421;BMP180;11824;51.178;13.546;2023-04-04T00:59:51;101417.00;;;2.50
4421;BMP180;11824;51.178;13.546;2023-04-04T01:02:18;101421.00;;;2.50
4421;BMP180;11824;51.178;13.546;2023-04-04T01:04:46;101418.00;;;2.50
4421;BMP180;11824;51.178;13.546;2023-04-04T01:07:14;101420.00;;;2.40
4421;BMP180;11824;51.178;13.546;2023-04-04T01:09:41;101417.00;;;2.40
4421;BMP180;11824;51.178;13.546;2023-04-04T01:12:09;101411.00;;;2.40
4421;BMP180;11824;51.178;13.546;2023-04-04T01:14:37;101408.00;;;2.40
4421;BMP180;11824;51.178;13.546;2023-04-04T01:17:06;101408.00;;;2.40
4421;BMP180;11824;51.178;13.546;2023-04-04T01:19:37;101412.00;;;2.40
4421;BMP180;11824;51.178;13.546;2023-04-04T01:22:10;101400.00;;;2.40
4421;BMP180;11824;51.178;13.546;2023-04-04T01:24:39;101407.00;;;2.30
4421;BMP180;11824;51.178;13.546;2023-04-04T01:27:09;101397.00;;;2.30
4421;BMP180;11824;51.178;13.546;2023-04-04T01:29:36;101399.00;;;2.30
4421;BMP180;11824;51.178;13.546;2023-04-04T01:32:07;101398.00;;;2.30
4421;BMP180;11824;51.178;13.546;2023-04-04T01:34:41;101396.00;;;2.20
4421;BMP180;11824;51.178;13.546;2023-04-04T01:37:14;101396.00;;;2.20
4421;BMP180;11824;51.178;13.546;2023-04-04T01:39:48;101395.00;;;2.20
4421;BMP180;11824;51.178;13.546;2023-04-04T01:42:18;101394.00;;;2.20
4421;BMP180;11824;51.178;13.546;2023-04-04T01:44:46;101401.00;;;2.20
4421;BMP180;11824;51.178;13.546;2023-04-04T01:47:13;101389.00;;;2.20
4421;BMP180;11824;51.178;13.546;2023-04-04T01:49:41;101398.00;;;2.10
4421;BMP180;11824;51.178;13.546;2023-04-04T01:52:08;101390.00;;;2.10
4421;BMP180;11824;51.178;13.546;2023-04-04T01:54:36;101389.00;;;2.10
4421;BMP180;11824;51.178;13.546;2023-04-04T01:57:03;101385.00;;;2.10
4421;BMP180;11824;51.178;13.546;2023-04-04T01:59:31;101388.00;;;2.10
4421;BMP180;11824;51.178;13.546;2023-04-04T02:01:59;101384.00;;;2.00
4421;BMP180;11824;51.178;13.546;2023-04-04T02:04:26;101393.00;;;2.00
4421;BMP180;11824;51.178;13.546;2023-04-04T02:06:54;101379.00;;;2.00
4421;BMP180;11824;51.178;13.546;2023-04-04T02:09:22;101380.00;;;2.00
4421;BMP180;11824;51.178;13.546;2023-04-04T02:11:50;101383.00;;;2.00
4421;BMP180;11824;51.178;13.546;2023-04-04T02:14:17;101386.00;;;1.90
4421;BMP180;11824;51.178;13.546;2023-04-04T02:16:46;101374.00;;;1.90
4421;BMP180;11824;51.178;13.546;2023-04-04T02:19:13;101375.00;;;1.90
4421;BMP180;11824;51.178;13.546;2023-04-04T02:21:41;101372.00;;;1.80
4421;BMP180;11824;51.178;13.546;2023-04-04T02:24:08;101386.00;;;1.80
4421;BMP180;11824;51.178;13.546;2023-04-04T02:26:36;101379.00;;;1.70
4421;BMP180;11824;51.178;13.546;2023-04-04T02:29:03;101382.00;;;1.70
4421;BMP180;11824;51.178;13.546;2023-04-04T02:31:30;101372.00;;;1.70
4421;BMP180;11824;51.178;13.546;2023-04-04T02:33:59;101373.00;;;1.60
4421;BMP180;11824;51.178;13.546;2023-04-04T02:36:26;101372.00;;;1.60
4421;BMP180;11824;51.178;13.546;2023-04-04T02:38:54;101361.00;;;1.60
4421;BMP180;11824;51.178;13.546;2023-04-04T02:41:21;101360.00;;;1.50
4421;BMP180;11824;51.178;13.546;2023-04-04T02:43:49;101363.00;;;1.50
4421;BMP180;11824;51.178;13.546;2023-04-04T02:46:17;101371.00;;;1.50
4421;BMP180;11824;51.178;13.546;2023-04-04T02:48:48;101377.00;;;1.50
4421;BMP180;11824;51.178;13.546;2023-04-04T02:51:18;101365.00;;;1.50
4421;BMP180;11824;51.178;13.546;2023-04-04T02:53:45;101368.00;;;1.50
4421;BMP180;11824;51.178;13.546;2023-04-04T02:56:13;101363.00;;;1.50
4421;BMP180;11824;51.178;13.546;2023-04-04T02:58:40;101366.00;;;1.50
4421;BMP180;11824;51.178;13.546;2023-04-04T03:01:09;101362.00;;;1.40
4421;BMP180;11824;51.178;13.546;2023-04-04T03:03:36;101369.00;;;1.40
4421;BMP180;11824;51.178;13.546;2023-04-04T03:06:04;101367.00;;;1.40
4421;BMP180;11824;51.178;13.546;2023-04-04T03:08:32;101352.00;;;1.40
4421;BMP180;11824;51.178;13.546;2023-04-04T03:11:01;101357.00;;;1.30
4421;BMP180;11824;51.178;13.546;2023-04-04T03:13:28;101357.00;;;1.30
4421;BMP180;11824;51.178;13.546;2023-04-04T03:16:00;101360.00;;;1.30
4421;BMP180;11824;51.178;13.546;2023-04-04T03:18:29;101356.00;;;1.30
4421;BMP180;11824;51.178;13.546;2023-04-04T03:20:56;101347.00;;;1.20
4421;BMP180;11824;51.178;13.546;2023-04-04T03:23:24;101361.00;;;1.20
4421;BMP180;11824;51.178;13.546;2023-04-04T03:25:52;101359.00;;;1.20
4421;BMP180;11824;51.178;13.546;2023-04-04T03:28:20;101367.00;;;1.20
4421;BMP180;11824;51.178;13.546;2023-04-04T03:30:48;101358.00;;;1.20
4421;BMP180;11824;51.178;13.546;2023-04-04T03:33:16;101377.00;;;1.20
4421;BMP180;11824;51.178;13.546;2023-04-04T03:35:43;101365.00;;;1.20
4421;BMP180;11824;51.178;13.546;2023-04-04T03:38:11;101358.00;;;1.20
4421;BMP180;11824;51.178;13.546;2023-04-04T03:40:38;101358.00;;;1.20
4421;BMP180;11824;51.178;13.546;2023-04-04T03:43:08;101362.00;;;1.20
4421;BMP180;11824;51.178;13.546;2023-04-04T03:45:36;101358.00;;;1.30
4421;BMP180;11824;51.178;13.546;2023-04-04T03:48:03;101355.00;;;1.30
4421;BMP180;11824;51.178;13.546;2023-04-04T03:50:30;101351.00;;;1.30
4421;BMP180;11824;51.178;13.546;2023-04-04T03:52:58;101358.00;;;1.30
4421;BMP180;11824;51.178;13.546;2023-04-04T03:55:25;101342.00;;;1.30
4421;BMP180;11824;51.178;13.546;2023-04-04T03:57:53;101349.00;;;1.30
4421;BMP180;11824;51.178;13.546;2023-04-04T04:00:21;101342.00;;;1.30
4421;BMP180;11824;51.178;13.546;2023-04-04T04:02:49;101339.00;;;1.30
4421;BMP180;11824;51.178;13.546;2023-04-04T04:05:16;101347.00;;;1.40
4421;BMP180;11824;51.178;13.546;2023-04-04T04:07:44;101341.00;;;1.40
4421;BMP180;11824;51.178;13.546;2023-04-04T04:10:12;101346.00;;;1.40
4421;BMP180;11824;51.178;13.546;2023-04-04T04:12:40;101348.00;;;1.40
4421;BMP180;11824;51.178;13.546;2023-04-04T04:15:08;101343.00;;;1.40
4421;BMP180;11824;51.178;13.546;2023-04-04T04:17:39;101355.00;;;1.40
4421;BMP180;11824;51.178;13.546;2023-04-04T04:20:08;101347.00;;;1.50
4421;BMP180;11824;51.178;13.546;2023-04-04T04:22:36;101344.00;;;1.50
4421;BMP180;11824;51.178;13.546;2023-04-04T04:25:04;101357.00;;;1.50
4421;BMP180;11824;51.178;13.546;2023-04-04T04:27:31;101349.00;;;1.50
4421;BMP180;11824;51.178;13.546;2023-04-04T04:29:59;101351.00;;;1.50
4421;BMP180;11824;51.178;13.546;2023-04-04T04:32:26;101356.00;;;1.50
4421;BMP180;11824;51.178;13.546;2023-04-04T04:34:55;101350.00;;;1.50
4421;BMP180;11824;51.178;13.546;2023-04-04T04:37:22;101340.00;;;1.40
4421;BMP180;11824;51.178;13.546;2023-04-04T04:39:51;101347.00;;;1.40
4421;BMP180;11824;51.178;13.546;2023-04-04T04:42:19;101351.00;;;1.40
4421;BMP180;11824;51.178;13.546;2023-04-04T04:44:46;101351.00;;;1.40
4421;BMP180;11824;51.178;13.546;2023-04-04T04:47:14;101359.00;;;1.40
4421;BMP180;11824;51.178;13.546;2023-04-04T04:49:41;101358.00;;;1.40
4421;BMP180;11824;51.178;13.546;2023-04-04T04:52:11;101362.00;;;1.40
4421;BMP180;11824;51.178;13.546;2023-04-04T04:54:38;101359.00;;;1.50
4421;BMP180;11824;51.178;13.546;2023-04-04T04:57:05;101359.00;;;1.50
4421;BMP180;11824;51.178;13.546;2023-04-04T04:59:33;101351.00;;;1.50
4421;BMP180;11824;51.178;13.546;2023-04-04T05:02:01;101359.00;;;1.50
4421;BMP180;11824;51.178;13.546;2023-04-04T05:04:28;101369.00;;;1.50
4421;BMP180;11824;51.178;13.546;2023-04-04T05:06:57;101370.00;;;1.60
4421;BMP180;11824;51.178;13.546;2023-04-04T05:09:25;101365.00;;;1.60
4421;BMP180;11824;51.178;13.546;2023-04-04T05:11:53;101371.00;;;1.60
4421;BMP180;11824;51.178;13.546;2023-04-04T05:14:21;101376.00;;;1.70
4421;BMP180;11824;51.178;13.546;2023-04-04T05:16:49;101383.00;;;1.70
4421;BMP180;11824;51.178;13.546;2023-04-04T05:19:16;101371.00;;;1.70
4421;BMP180;11824;51.178;13.546;2023-04-04T05:21:44;101389.00;;;1.80
4421;BMP180;11824;51.178;13.546;2023-04-04T05:24:12;101384.00;;;1.80
4421;BMP180;11824;51.178;13.546;2023-04-04T05:26:40;101383.00;;;1.80
4421;BMP180;11824;51.178;13.546;2023-04-04T05:29:08;101381.00;;;1.90
4421;BMP180;11824;51.178;13.546;2023-04-04T05:31:35;101390.00;;;1.90
4421;BMP180;11824;51.178;13.546;2023-04-04T05:34:03;101391.00;;;2.00
4421;BMP180;11824;51.178;13.546;2023-04-04T05:36:34;101387.00;;;2.00
4421;BMP180;11824;51.178;13.546;2023-04-04T05:39:02;101392.00;;;2.20
4421;BMP180;11824;51.178;13.546;2023-04-04T05:41:30;101401.00;;;2.30
4421;BMP180;11824;51.178;13.546;2023-04-04T05:44:01;101399.00;;;2.40
4421;BMP180;11824;51.178;13.546;2023-04-04T05:46:29;101401.00;;;2.50
4421;BMP180;11824;51.178;13.546;2023-04-04T05:48:57;101402.00;;;2.60
4421;BMP180;11824;51.178;13.546;2023-04-04T05:51:24;101394.00;;;2.80
4421;BMP180;11824;51.178;13.546;2023-04-04T05:53:52;101408.00;;;3.00
4421;BMP180;11824;51.178;13.546;2023-04-04T05:56:20;101402.00;;;3.50
4421;BMP180;11824;51.178;13.546;2023-04-04T05:58:47;101406.00;;;4.00
4421;BMP180;11824;51.178;13.546;2023-04-04T06:01:15;101412.00;;;4.20
4421;BMP180;11824;51.178;13.546;2023-04-04T06:03:44;101410.00;;;4.40
4421;BMP180;11824;51.178;13.546;2023-04-04T06:06:11;101415.00;;;4.70
4421;BMP180;11824;51.178;13.546;2023-04-04T06:08:39;101407.00;;;5.00
4421;BMP180;11824;51.178;13.546;2023-04-04T06:11:20;101415.00;;;5.30
4421;BMP180;11824;51.178;13.546;2023-04-04T06:13:48;101405.00;;;5.50
4421;BMP180;11824;51.178;13.546;2023-04-04T06:16:17;101407.00;;;5.50
4421;BMP180;11824;51.178;13.546;2023-04-04T06:18:45;101407.00;;;5.50
4421;BMP180;11824;51.178;13.546;2023-04-04T06:21:12;101416.00;;;5.40
4421;BMP180;11824;51.178;13.546;2023-04-04T06:23:40;101412.00;;;5.30
4421;BMP180;11824;51.178;13.546;2023-04-04T06:26:08;101413.00;;;5.30
4421;BMP180;11824;51.178;13.546;2023-04-04T06:28:35;101412.00;;;5.20
4421;BMP180;11824;51.178;13.546;2023-04-04T06:31:05;101414.00;;;5.00
4421;BMP180;11824;51.178;13.546;2023-04-04T06:33:33;101413.00;;;4.70
4421;BMP180;11824;51.178;13.546;2023-04-04T06:36:01;101410.00;;;4.40
4421;BMP180;11824;51.178;13.546;2023-04-04T06:38:28;101412.00;;;4.00
4421;BMP180;11824;51.178;13.546;2023-04-04T06:40:56;101408.00;;;3.70
4421;BMP180;11824;51.178;13.546;2023-04-04T06:43:23;101408.00;;;3.40
4421;BMP180;11824;51.178;13.546;2023-04-04T06:45:51;101397.00;;;3.20
4421;BMP180;11824;51.178;13.546;2023-04-04T06:48:18;101417.00;;;3.00
4421;BMP180;11824;51.178;13.546;2023-04-04T06:50:47;101402.00;;;2.90
4421;BMP180;11824;51.178;13.546;2023-04-04T06:53:15;101394.00;;;2.70
4421;BMP180;11824;51.178;13.546;2023-04-04T06:55:42;101395.00;;;2.70
4421;BMP180;11824;51.178;13.546;2023-04-04T06:58:09;101399.00;;;2.60
4421;BMP180;11824;51.178;13.546;2023-04-04T07:00:37;101399.00;;;2.60
4421;BMP180;11824;51.178;13.546;2023-04-04T07:03:05;101395.00;;;2.60
4421;BMP180;11824;51.178;13.546;2023-04-04T07:05:35;101402.00;;;2.50
4421;BMP180;11824;51.178;13.546;2023-04-04T07:08:05;101395.00;;;2.50
4421;BMP180;11824;51.178;13.546;2023-04-04T07:10:33;101398.00;;;2.50
4421;BMP180;11824;51.178;13.546;2023-04-04T07:13:01;101397.00;;;2.50
4421;BMP180;11824;51.178;13.546;2023-04-04T07:15:30;101392.00;;;2.50
4421;BMP180;11824;51.178;13.546;2023-04-04T07:17:58;101400.00;;;2.60
4421;BMP180;11824;51.178;13.546;2023-04-04T07:20:25;101403.00;;;2.60
4421;BMP180;11824;51.178;13.546;2023-04-04T07:22:54;101403.00;;;2.60
4421;BMP180;11824;51.178;13.546;2023-04-04T07:25:22;101388.00;;;2.70
4421;BMP180;11824;51.178;13.546;2023-04-04T07:27:52;101403.00;;;2.70
4421;BMP180;11824;51.178;13.546;2023-04-04T07:30:32;101407.00;;;2.80
4421;BMP180;11824;51.178;13.546;2023-04-04T07:33:00;101408.00;;;2.80
4421;BMP180;11824;51.178;13.546;2023-04-04T07:35:28;101395.00;;;2.80
4421;BMP180;11824;51.178;13.546;2023-04-04T07:37:56;101400.00;;;2.90
4421;BMP180;11824;51.178;13.546;2023-04-04T07:40:24;101383.00;;;2.90
4421;BMP180;11824;51.178;13.546;2023-04-04T07:42:52;101395.00;;;2.90
4421;BMP180;11824;51.178;13.546;2023-04-04T07:45:20;101395.00;;;3.00
4421;BMP180;11824;51.178;13.546;2023-04-04T07:47:48;101390.00;;;3.00
4421;BMP180;11824;51.178;13.546;2023-04-04T07:50:16;101393.00;;;3.10
4421;BMP180;11824;51.178;13.546;2023-04-04T07:52:48;101397.00;;;3.10
4421;BMP180;11824;51.178;13.546;2023-04-04T07:55:16;101394.00;;;3.10
4421;BMP180;11824;51.178;13.546;2023-04-04T07:57:44;101395.00;;;3.10
4421;BMP180;11824;51.178;13.546;2023-04-04T08:00:13;101398.00;;;3.20
4421;BMP180;11824;51.178;13.546;2023-04-04T08:02:42;101403.00;;;3.20
4421;BMP180;11824;51.178;13.546;2023-04-04T08:05:10;101405.00;;;3.30
4421;BMP180;11824;51.178;13.546;2023-04-04T08:07:38;101388.00;;;3.30
4421;BMP180;11824;51.178;13.546;2023-04-04T08:10:07;101387.00;;;3.40
4421;BMP180;11824;51.178;13.546;2023-04-04T08:12:34;101392.00;;;3.40
4421;BMP180;11824;51.178;13.546;2023-04-04T08:15:03;101391.00;;;3.40
4421;BMP180;11824;51.178;13.546;2023-04-04T08:17:30;101390.00;;;3.50
4421;BMP180;11824;51.178;13.546;2023-04-04T08:19:58;101389.00;;;3.60
4421;BMP180;11824;51.178;13.546;2023-04-04T08:22:25;101397.00;;;3.70
4421;BMP180;11824;51.178;13.546;2023-04-04T08:24:52;101389.00;;;3.70
4421;BMP180;11824;51.178;13.546;2023-04-04T08:27:20;101389.00;;;3.70
4421;BMP180;11824;51.178;13.546;2023-04-04T08:29:47;101383.00;;;3.80
4421;BMP180;11824;51.178;13.546;2023-04-04T08:32:15;101385.00;;;3.80
4421;BMP180;11824;51.178;13.546;2023-04-04T08:34:43;101385.00;;;3.90
4421;BMP180;11824;51.178;13.546;2023-04-04T08:37:10;101381.00;;;4.00
4421;BMP180;11824;51.178;13.546;2023-04-04T08:39:37;101383.00;;;4.00
4421;BMP180;11824;51.178;13.546;2023-04-04T08:42:06;101382.00;;;4.00
4421;BMP180;11824;51.178;13.546;2023-04-04T08:44:35;101384.00;;;4.20
4421;BMP180;11824;51.178;13.546;2023-04-04T08:47:03;101381.00;;;4.30
4421;BMP180;11824;51.178;13.546;2023-04-04T08:49:36;101378.00;;;4.40
4421;BMP180;11824;51.178;13.546;2023-04-04T08:52:05;101375.00;;;4.50
4421;BMP180;11824;51.178;13.546;2023-04-04T08:54:34;101379.00;;;4.60
4421;BMP180;11824;51.178;13.546;2023-04-04T08:57:03;101391.00;;;4.70
4421;BMP180;11824;51.178;13.546;2023-04-04T08:59:30;101376.00;;;4.80
4421;BMP180;11824;51.178;13.546;2023-04-04T09:02:13;101381.00;;;4.80
4421;BMP180;11824;51.178;13.546;2023-04-04T09:04:42;101379.00;;;4.70
4421;BMP180;11824;51.178;13.546;2023-04-04T09:07:21;101380.00;;;4.70
4421;BMP180;11824;51.178;13.546;2023-04-04T09:09:50;101381.00;;;4.70
4421;BMP180;11824;51.178;13.546;2023-04-04T09:12:18;101380.00;;;4.70
4421;BMP180;11824;51.178;13.546;2023-04-04T09:14:47;101381.00;;;4.70
4421;BMP180;11824;51.178;13.546;2023-04-04T09:17:16;101386.00;;;4.70
4421;BMP180;11824;51.178;13.546;2023-04-04T09:19:45;101379.00;;;4.70
4421;BMP180;11824;51.178;13.546;2023-04-04T09:22:12;101379.00;;;4.70
4421;BMP180;11824;51.178;13.546;2023-04-04T09:24:42;101373.00;;;4.80
4421;BMP180;11824;51.178;13.546;2023-04-04T09:27:10;101367.00;;;4.90
4421;BMP180;11824;51.178;13.546;2023-04-04T09:29:39;101368.00;;;5.00
4421;BMP180;11824;51.178;13.546;2023-04-04T09:32:08;101384.00;;;5.10
4421;BMP180;11824;51.178;13.546;2023-04-04T09:34:36;101366.00;;;5.30
4421;BMP180;11824;51.178;13.546;2023-04-04T09:37:05;101373.00;;;5.40
4421;BMP180;11824;51.178;13.546;2023-04-04T09:39:33;101366.00;;;5.50
4421;BMP180;11824;51.178;13.546;2023-04-04T09:42:01;101388.00;;;5.50
4421;BMP180;11824;51.178;13.546;2023-04-04T09:44:29;101391.00;;;5.50
4421;BMP180;11824;51.178;13.546;2023-04-04T09:47:24;101396.00;;;5.50
4421;BMP180;11824;51.178;13.546;2023-04-04T09:49:57;101387.00;;;5.50
4421;BMP180;11824;51.178;13.546;2023-04-04T09:52:25;101386.00;;;5.50
4421;BMP180;11824;51.178;13.546;2023-04-04T09:54:56;101392.00;;;5.50
4421;BMP180;11824;51.178;13.546;2023-04-04T09:57:25;101382.00;;;5.60
4421;BMP180;11824;51.178;13.546;2023-04-04T09:59:54;101377.00;;;5.50
4421;BMP180;11824;51.178;13.546;2023-04-04T10:02:22;101392.00;;;5.40
4421;BMP180;11824;51.178;13.546;2023-04-04T10:04:52;101378.00;;;5.40
4421;BMP180;11824;51.178;13.546;2023-04-04T10:07:24;101377.00;;;5.40
4421;BMP180;11824;51.178;13.546;2023-04-04T10:09:53;101375.00;;;5.40
4421;BMP180;11824;51.178;13.546;2023-04-04T10:12:22;101374.00;;;5.40
4421;BMP180;11824;51.178;13.546;2023-04-04T10:14:55;101378.00;;;5.50
4421;BMP180;11824;51.178;13.546;2023-04-04T10:17:23;101372.00;;;5.50
4421;BMP180;11824;51.178;13.546;2023-04-04T10:19:51;101378.00;;;5.60
4421;BMP180;11824;51.178;13.546;2023-04-04T10:22:20;101375.00;;;5.70
4421;BMP180;11824;51.178;13.546;2023-04-04T10:24:50;101383.00;;;5.70
4421;BMP180;11824;51.178;13.546;2023-04-04T10:27:19;101370.00;;;5.70
4421;BMP180;11824;51.178;13.546;2023-04-04T10:29:47;101377.00;;;5.70
4421;BMP180;11824;51.178;13.546;2023-04-04T10:32:21;101381.00;;;5.70
4421;BMP180;11824;51.178;13.546;2023-04-04T10:34:56;101371.00;;;5.70
4421;BMP180;11824;51.178;13.546;2023-04-04T10:37:30;101367.00;;;5.80
4421;BMP180;11824;51.178;13.546;2023-04-04T10:40:03;101384.00;;;5.80
4421;BMP180;11824;51.178;13.546;2023-04-04T10:42:37;101366.00;;;5.70
4421;BMP180;11824;51.178;13.546;2023-04-04T10:45:07;101377.00;;;5.80
4421;BMP180;11824;51.178;13.546;2023-04-04T10:47:46;101365.00;;;5.70
4421;BMP180;11824;51.178;13.546;2023-04-04T10:50:14;101362.00;;;5.70
4421;BMP180;11824;51.178;13.546;2023-04-04T10:52:43;101352.00;;;5.80
4421;BMP180;11824;51.178;13.546;2023-04-04T10:55:12;101345.00;;;5.80
4421;BMP180;11824;51.178;13.546;2023-04-04T10:57:42;101360.00;;;5.90
4421;BMP180;11824;51.178;13.546;2023-04-04T11:00:12;101338.00;;;5.90
4421;BMP180;11824;51.178;13.546;2023-04-04T11:02:44;101340.00;;;5.90
4421;BMP180;11824;51.178;13.546;2023-04-04T11:05:14;101333.00;;;5.80
4421;BMP180;11824;51.178;13.546;2023-04-04T11:07:44;101333.00;;;5.90
4421;BMP180;11824;51.178;13.546;2023-04-04T11:10:32;101332.00;;;5.90
4421;BMP180;11824;51.178;13.546;2023-04-04T11:13:07;101322.00;;;5.90
4421;BMP180;11824;51.178;13.546;2023-04-04T11:15:52;101324.00;;;5.90
4421;BMP180;11824;51.178;13.546;2023-04-04T11:18:21;101326.00;;;5.90
4421;BMP180;11824;51.178;13.546;2023-04-04T11:21:01;101321.00;;;6.00
4421;BMP180;11824;51.178;13.546;2023-04-04T11:26:35;101340.00;;;6.00
4421;BMP180;11824;51.178;13.546;2023-04-04T11:29:03;101328.00;;;6.00
4421;BMP180;11824;51.178;13.546;2023-04-04T11:31:36;101327.00;;;6.00
4421;BMP180;11824;51.178;13.546;2023-04-04T11:34:06;101314.00;;;6.00
4421;BMP180;11824;51.178;13.546;2023-04-04T11:36:50;101324.00;;;6.00
4421;BMP180;11824;51.178;13.546;2023-04-04T11:39:38;101322.00;;;6.00
4421;BMP180;11824;51.178;13.546;2023-04-04T11:42:16;101313.00;;;6.00
4421;BMP180;11824;51.178;13.546;2023-04-04T11:45:01;101314.00;;;5.90
4421;BMP180;11824;51.178;13.546;2023-04-04T11:47:29;101305.00;;;5.90
4421;BMP180;11824;51.178;13.546;2023-04-04T11:49:59;101293.00;;;6.00
4421;BMP180;11824;51.178;13.546;2023-04-04T11:52:32;101296.00;;;6.00
4421;BMP180;11824;51.178;13.546;2023-04-04T11:55:00;101293.00;;;6.00
4421;BMP180;11824;51.178;13.546;2023-04-04T11:57:28;101290.00;;;6.10
4421;BMP180;11824;51.178;13.546;2023-04-04T11:59:57;101304.00;;;6.20
4421;BMP180;11824;51.178;13.546;2023-04-04T12:02:25;101296.00;;;6.20
4421;BMP180;11824;51.178;13.546;2023-04-04T12:04:56;101298.00;;;6.20
4421;BMP180;11824;51.178;13.546;2023-04-04T12:07:24;101300.00;;;6.20
4421;BMP180;11824;51.178;13.546;2023-04-04T12:09:52;101286.00;;;6.20
4421;BMP180;11824;51.178;13.546;2023-04-04T12:12:22;101297.00;;;6.20
4421;BMP180;11824;51.178;13.546;2023-04-04T12:14:53;101292.00;;;6.10
4421;BMP180;11824;51.178;13.546;2023-04-04T12:17:32;101272.00;;;6.10
4421;BMP180;11824;51.178;13.546;2023-04-04T12:20:00;101265.00;;;6.10
4421;BMP180;11824;51.178;13.546;2023-04-04T12:22:32;101264.00;;;6.10
4421;BMP180;11824;51.178;13.546;2023-04-04T12:25:00;101269.00;;;6.20
4421;BMP180;11824;51.178;13.546;2023-04-04T12:27:28;101271.00;;;6.20
4421;BMP180;11824;51.178;13.546;2023-04-04T12:29:57;101276.00;;;6.20
4421;BMP180;11824;51.178;13.546;2023-04-04T12:32:24;101268.00;;;6.30
4421;BMP180;11824;51.178;13.546;2023-04-04T12:34:56;101263.00;;;6.30
4421;BMP180;11824;51.178;13.546;2023-04-04T12:37:28;101263.00;;;6.40
4421;BMP180;11824;51.178;13.546;2023-04-04T12:39:55;101263.00;;;6.40
4421;BMP180;11824;51.178;13.546;2023-04-04T12:42:24;101277.00;;;6.50
4421;BMP180;11824;51.178;13.546;2023-04-04T12:44:52;101262.00;;;6.60
4421;BMP180;11824;51.178;13.546;2023-04-04T12:47:21;101269.00;;;6.60
4421;BMP180;11824;51.178;13.546;2023-04-04T12:49:52;101259.00;;;6.70
4421;BMP180;11824;51.178;13.546;2023-04-04T12:52:21;101261.00;;;6.60
4421;BMP180;11824;51.178;13.546;2023-04-04T12:54:49;101259.00;;;6.60
4421;BMP180;11824;51.178;13.546;2023-04-04T12:57:34;101263.00;;;6.60
4421;BMP180;11824;51.178;13.546;2023-04-04T13:00:04;101248.00;;;6.60
4421;BMP180;11824;51.178;13.546;2023-04-04T13:02:36;101249.00;;;6.60
4421;BMP180;11824;51.178;13.546;2023-04-04T13:05:04;101239.00;;;6.60
4421;BMP180;11824;51.178;13.546;2023-04-04T13:07:34;101253.00;;;6.60
4421;BMP180;11824;51.178;13.546;2023-04-04T13:10:09;101254.00;;;6.60
4421;BMP180;11824;51.178;13.546;2023-04-04T13:12:54;101250.00;;;6.60
4421;BMP180;11824;51.178;13.546;2023-04-04T13:15:46;101244.00;;;6.70
4421;BMP180;11824;51.178;13.546;2023-04-04T13:18:16;101234.00;;;6.70
4421;BMP180;11824;51.178;13.546;2023-04-04T13:20:44;101234.00;;;6.80
4421;BMP180;11824;51.178;13.546;2023-04-04T13:23:12;101237.00;;;6.80
4421;BMP180;11824;51.178;13.546;2023-04-04T13:25:40;101225.00;;;6.90
4421;BMP180;11824;51.178;13.546;2023-04-04T13:28:08;101236.00;;;7.00
4421;BMP180;11824;51.178;13.546;2023-04-04T13:30:37;101240.00;;;7.00
4421;BMP180;11824;51.178;13.546;2023-04-04T13:33:05;101233.00;;;7.00
4421;BMP180;11824;51.178;13.546;2023-04-04T13:35:33;101237.00;;;7.00
4421;BMP180;11824;51.178;13.546;2023-04-04T13:38:01;101223.00;;;7.00
4421;BMP180;11824;51.178;13.546;2023-04-04T13:40:28;101224.00;;;7.10
4421;BMP180;11824;51.178;13.546;2023-04-04T13:42:56;101218.00;;;7.00
4421;BMP180;11824;51.178;13.546;2023-04-04T13:45:23;101237.00;;;7.00
4421;BMP180;11824;51.178;13.546;2023-04-04T13:47:51;101209.00;;;7.00
4421;BMP180;11824;51.178;13.546;2023-04-04T13:50:18;101214.00;;;7.00
4421;BMP180;11824;51.178;13.546;2023-04-04T13:52:48;101206.00;;;7.10
4421;BMP180;11824;51.178;13.546;2023-04-04T13:55:18;101198.00;;;7.10
4421;BMP180;11824;51.178;13.546;2023-04-04T13:57:45;101208.00;;;7.10
4421;BMP180;11824;51.178;13.546;2023-04-04T14:00:13;101209.00;;;7.20
4421;BMP180;11824;51.178;13.546;2023-04-04T14:02:41;101196.00;;;7.20
4421;BMP180;11824;51.178;13.546;2023-04-04T14:05:09;101190.00;;;7.20
4421;BMP180;11824;51.178;13.546;2023-04-04T14:07:37;101195.00;;;7.30
4421;BMP180;11824;51.178;13.546;2023-04-04T14:10:06;101189.00;;;7.30
4421;BMP180;11824;51.178;13.546;2023-04-04T14:12:37;101195.00;;;7.30
4421;BMP180;11824;51.178;13.546;2023-04-04T14:15:05;101182.00;;;7.30
4421;BMP180;11824;51.178;13.546;2023-04-04T14:17:33;101193.00;;;7.40
4421;BMP180;11824;51.178;13.546;2023-04-04T14:20:01;101199.00;;;7.40
4421;BMP180;11824;51.178;13.546;2023-04-04T14:22:28;101189.00;;;7.30